Chiricana — 3EKU3 — position and weather

sailwx.info

Track history (hours):
 
Tides and Currents Weather Stations Pressure Air Temp Water Temp Dewpoint Dewpoint Depression Visibility Wind Speed Wind Dir Waves Ship Positions

Chiricana

Last reported at 2018-Feb-18 08:00 UTC. Time now 2018-Feb-24 12:04 UTC.
Position N 14°00' E 054°30'.

Length 300 m; draft 14.4 m.

Type: Ship (hazmat cat D). MMSI: 372829000.

Wind from 070 at 6 knots

Barometer 1015.0 mb
Air temperature 25.5 ° C
Visibility: greater than 5.4 NM
Water temperature 24.0 ° C

Date/timePositionNaut miles runAvg speedWind from/ knotsBaromVisibWave heightAir tempDewpointWater temp
2018-Feb-18 08:00N 14°00' E 054°30'51818.5 070 / 61015.0 5.4 25.5 24.0
2018-Feb-17 04:00N 11°18' E 062°54'88018.3 050 / 101017.0 5.4 26.5 27.0
2018-Feb-15 04:00N 06°42' E 077°00'40817.0 050 / 201017.0 5.4 29.5 28.0
2018-Feb-14 04:00N 05°54' E 083°48'6616.4 050 / 131017.0 5.4 30.5 29.0
2018-Feb-14 00:00N 05°54' E 084°54'37618.8 360 / 81014.0 5.4 33.9 29.0
2018-Feb-13 04:00N 06°12' E 091°12'78918.4 090 / 181016.0 5.4 30.0 29.0
2018-Feb-11 09:13N 01°15' E 103°24'416.1
2018-Feb-11 08:59N 01°13' E 103°27'714.1
2018-Feb-11 08:29N 01°12' E 103°34'4 7.3
2018-Feb-11 07:59N 01°12' E 103°38'3 5.4
2018-Feb-11 07:30N 01°13' E 103°40'4 8.1
2018-Feb-11 06:59N 01°15' E 103°43'3 6.5
2018-Feb-11 06:30N 01°16' E 103°47'1 1.1
2018-Feb-11 06:00N 01°16' E 103°47'0 0.2
2018-Feb-11 05:23N 01°16' E 103°47'0 0.0
2018-Feb-11 04:53N 01°16' E 103°47'0 0.0
2018-Feb-11 04:29N 01°16' E 103°47'0 0.0
2018-Feb-11 03:59N 01°16' E 103°47'0 0.0
2018-Feb-11 03:29N 01°16' E 103°47'0 0.0
2018-Feb-11 02:59N 01°16' E 103°47'0 0.0
2018-Feb-11 02:23N 01°16' E 103°47'0 0.0
2018-Feb-11 01:59N 01°16' E 103°47'0 0.0
2018-Feb-11 01:29N 01°16' E 103°47'0 0.0
2018-Feb-11 00:59N 01°16' E 103°47'0 0.0
2018-Feb-11 00:29N 01°16' E 103°47'0 0.0
2018-Feb-10 23:59N 01°16' E 103°47'0 0.1
2018-Feb-10 23:29N 01°16' E 103°47'0 0.1
2018-Feb-10 22:59N 01°16' E 103°47'0 0.0
2018-Feb-10 22:29N 01°16' E 103°47'0 0.1
2018-Feb-10 21:59N 01°16' E 103°47'0 0.0
2018-Feb-10 21:29N 01°16' E 103°47'0 0.0
2018-Feb-10 20:59N 01°16' E 103°47'0 0.0
2018-Feb-10 20:29N 01°16' E 103°47'0 0.0
2018-Feb-10 19:53N 01°16' E 103°47'0 0.2
2018-Feb-10 19:29N 01°16' E 103°47'0 0.1
2018-Feb-10 18:59N 01°16' E 103°47'0 0.0
2018-Feb-10 18:29N 01°16' E 103°47'0 0.0
2018-Feb-10 17:59N 01°16' E 103°47'0 0.0
2018-Feb-10 17:29N 01°16' E 103°47'0 0.0
2018-Feb-10 16:59N 01°16' E 103°47'0 0.0
2018-Feb-10 16:29N 01°16' E 103°47'0 0.1
2018-Feb-10 15:59N 01°16' E 103°47'0 0.1
2018-Feb-10 15:26N 01°16' E 103°47'0 0.0
2018-Feb-10 14:59N 01°16' E 103°47'0 0.0
2018-Feb-10 14:29N 01°16' E 103°47'0 0.0
2018-Feb-10 13:59N 01°16' E 103°47'0 0.0
2018-Feb-10 13:23N 01°16' E 103°47'0 0.2
2018-Feb-10 13:00N 01°16' E 103°47'0 0.1
2018-Feb-10 12:30N 01°16' E 103°47'1 2.5
2018-Feb-10 12:00N 01°15' E 103°46'3 5.1
2018-Feb-10 11:30N 01°13' E 103°48'4 8.8
2018-Feb-10 11:00N 01°13' E 103°52'4 7.4
2018-Feb-10 10:30N 01°14' E 103°56'3 5.5
2018-Feb-10 10:01N 01°15' E 103°58'3 5.2
2018-Feb-10 09:30N 01°16' E 104°01'3 6.2
2018-Feb-10 08:58N 01°16' E 104°04'1 2.3
2018-Feb-10 08:26N 01°16' E 104°05'1 2.6
2018-Feb-10 07:57N 01°16' E 104°07'3 5.4
2018-Feb-10 07:29N 01°17' E 104°09'12116.1
2018-Feb-10 00:00N 03°00' E 105°12'32420.3 030 / 131014.0 5.4 25.5 26.0
2018-Feb-09 08:00N 07°30' E 108°12'9022.4 070 / 151011.0 5.4 30.0 28.0
2018-Feb-09 04:00N 08°42' E 109°06'7819.5 070 / 181014.0 5.4 27.5 25.0
2018-Feb-09 00:00N 09°48' E 109°48'   050 / 201014.0 5.4 25.0 24.5
Track history (hours):
 
Tides and Currents Weather Stations Pressure Air Temp Water Temp Dewpoint Dewpoint Depression Visibility Wind Speed Wind Dir Waves Ship Positions

Chiricana

Last reported at 2018-Feb-18 08:00 UTC. Time now 2018-Feb-24 12:04 UTC.
Position N 14°00' E 054°30'.

Length 300 m; draft 14.4 m.

Type: Ship (hazmat cat D). MMSI: 372829000.

Wind from 070 at 6 knots

Barometer 1015.0 mb
Air temperature 25.5 ° C
Visibility: greater than 5.4 NM
Water temperature 24.0 ° C

Date/timePositionNaut miles runAvg speedWind from/ knotsBaromVisibWave heightAir tempDewpointWater temp
2018-Feb-18 08:00N 14°00' E 054°30'51818.5 070 / 61015.0 5.4 25.5 24.0
2018-Feb-17 04:00N 11°18' E 062°54'88018.3 050 / 101017.0 5.4 26.5 27.0
2018-Feb-15 04:00N 06°42' E 077°00'40817.0 050 / 201017.0 5.4 29.5 28.0
2018-Feb-14 04:00N 05°54' E 083°48'6616.4 050 / 131017.0 5.4 30.5 29.0
2018-Feb-14 00:00N 05°54' E 084°54'37618.8 360 / 81014.0 5.4 33.9 29.0
2018-Feb-13 04:00N 06°12' E 091°12'78918.4 090 / 181016.0 5.4 30.0 29.0
2018-Feb-11 09:13N 01°15' E 103°24'416.1
2018-Feb-11 08:59N 01°13' E 103°27'714.1
2018-Feb-11 08:29N 01°12' E 103°34'4 7.3
2018-Feb-11 07:59N 01°12' E 103°38'3 5.4
2018-Feb-11 07:30N 01°13' E 103°40'4 8.1
2018-Feb-11 06:59N 01°15' E 103°43'3 6.5
2018-Feb-11 06:30N 01°16' E 103°47'1 1.1
2018-Feb-11 06:00N 01°16' E 103°47'0 0.2
2018-Feb-11 05:23N 01°16' E 103°47'0 0.0
2018-Feb-11 04:53N 01°16' E 103°47'0 0.0
2018-Feb-11 04:29N 01°16' E 103°47'0 0.0
2018-Feb-11 03:59N 01°16' E 103°47'0 0.0
2018-Feb-11 03:29N 01°16' E 103°47'0 0.0
2018-Feb-11 02:59N 01°16' E 103°47'0 0.0
2018-Feb-11 02:23N 01°16' E 103°47'0 0.0
2018-Feb-11 01:59N 01°16' E 103°47'0 0.0
2018-Feb-11 01:29N 01°16' E 103°47'0 0.0
2018-Feb-11 00:59N 01°16' E 103°47'0 0.0
2018-Feb-11 00:29N 01°16' E 103°47'0 0.0
2018-Feb-10 23:59N 01°16' E 103°47'0 0.1
2018-Feb-10 23:29N 01°16' E 103°47'0 0.1
2018-Feb-10 22:59N 01°16' E 103°47'0 0.0
2018-Feb-10 22:29N 01°16' E 103°47'0 0.1
2018-Feb-10 21:59N 01°16' E 103°47'0 0.0
2018-Feb-10 21:29N 01°16' E 103°47'0 0.0
2018-Feb-10 20:59N 01°16' E 103°47'0 0.0
2018-Feb-10 20:29N 01°16' E 103°47'0 0.0
2018-Feb-10 19:53N 01°16' E 103°47'0 0.2
2018-Feb-10 19:29N 01°16' E 103°47'0 0.1
2018-Feb-10 18:59N 01°16' E 103°47'0 0.0
2018-Feb-10 18:29N 01°16' E 103°47'0 0.0
2018-Feb-10 17:59N 01°16' E 103°47'0 0.0
2018-Feb-10 17:29N 01°16' E 103°47'0 0.0
2018-Feb-10 16:59N 01°16' E 103°47'0 0.0
2018-Feb-10 16:29N 01°16' E 103°47'0 0.1
2018-Feb-10 15:59N 01°16' E 103°47'0 0.1
2018-Feb-10 15:26N 01°16' E 103°47'0 0.0
2018-Feb-10 14:59N 01°16' E 103°47'0 0.0
2018-Feb-10 14:29N 01°16' E 103°47'0 0.0
2018-Feb-10 13:59N 01°16' E 103°47'0 0.0
2018-Feb-10 13:23N 01°16' E 103°47'0 0.2
2018-Feb-10 13:00N 01°16' E 103°47'0 0.1
2018-Feb-10 12:30N 01°16' E 103°47'1 2.5
2018-Feb-10 12:00N 01°15' E 103°46'3 5.1
2018-Feb-10 11:30N 01°13' E 103°48'4 8.8
2018-Feb-10 11:00N 01°13' E 103°52'4 7.4
2018-Feb-10 10:30N 01°14' E 103°56'3 5.5
2018-Feb-10 10:01N 01°15' E 103°58'3 5.2
2018-Feb-10 09:30N 01°16' E 104°01'3 6.2
2018-Feb-10 08:58N 01°16' E 104°04'1 2.3
2018-Feb-10 08:26N 01°16' E 104°05'1 2.6
2018-Feb-10 07:57N 01°16' E 104°07'3 5.4
2018-Feb-10 07:29N 01°17' E 104°09'12116.1
2018-Feb-10 00:00N 03°00' E 105°12'32420.3 030 / 131014.0 5.4 25.5 26.0
2018-Feb-09 08:00N 07°30' E 108°12'9022.4 070 / 151011.0 5.4 30.0 28.0
2018-Feb-09 04:00N 08°42' E 109°06'7819.5 070 / 181014.0 5.4 27.5 25.0
2018-Feb-09 00:00N 09°48' E 109°48'   050 / 201014.0 5.4 25.0 24.5

Dump ship's entire track history